<?xml version="1.0" encoding="UTF-8" standalone="no" ?>
<gpx xmlns="http://www.topografix.com/GPX/1/1" xmlns:xsi="http://www.w3.org/2001/XMLSchema-instance" xsi:schemaLocation="http://www.topografix.com/GPX/1/1 http://www.topografix.com/GPX/1/1/gpx.xsd" version="1.1" creator="VisuGPX - https://www.visugpx.com">
  <metadata>
    <name>Montbrison sur lez - Le Pègue</name>
    <desc><![CDATA[Petite rando entre Montbrison sur lez et Le Pègue (Drôme provençale)]]></desc>
  </metadata>
  <trk>
    <name><![CDATA[24-JUIN-11 17:46:12]]></name>
    <trkseg>
      <trkpt lat="44.42995" lon="5.0273">
        <ele>260.65</ele>
        <time>2011-06-24T13:53:55Z</time>
      </trkpt>
      <trkpt lat="44.42995" lon="5.02732">
        <ele>258.25</ele>
        <time>2011-06-24T13:53:56Z</time>
      </trkpt>
      <trkpt lat="44.42994" lon="5.02733">
        <ele>261.62</ele>
        <time>2011-06-24T13:53:57Z</time>
      </trkpt>
      <trkpt lat="44.42994" lon="5.02733">
        <ele>266.42</ele>
        <time>2011-06-24T13:53:59Z</time>
      </trkpt>
      <trkpt lat="44.42994" lon="5.02732">
        <ele>269.79</ele>
        <time>2011-06-24T13:54:01Z</time>
      </trkpt>
      <trkpt lat="44.42994" lon="5.02732">
        <ele>273.63</ele>
        <time>2011-06-24T13:54:02Z</time>
      </trkpt>
      <trkpt lat="44.42984" lon="5.02729">
        <ele>278.44</ele>
        <time>2011-06-24T13:54:04Z</time>
      </trkpt>
      <trkpt lat="44.42973" lon="5.02725">
        <ele>282.28</ele>
        <time>2011-06-24T13:54:06Z</time>
      </trkpt>
      <trkpt lat="44.42964" lon="5.02724">
        <ele>286.61</ele>
        <time>2011-06-24T13:54:08Z</time>
      </trkpt>
      <trkpt lat="44.42961" lon="5.02721">
        <ele>291.42</ele>
        <time>2011-06-24T13:54:11Z</time>
      </trkpt>
      <trkpt lat="44.4296" lon="5.02719">
        <ele>294.78</ele>
        <time>2011-06-24T13:54:14Z</time>
      </trkpt>
      <trkpt lat="44.42959" lon="5.02718">
        <ele>296.22</ele>
        <time>2011-06-24T13:54:16Z</time>
      </trkpt>
      <trkpt lat="44.42959" lon="5.02717">
        <ele>297.18</ele>
        <time>2011-06-24T13:54:18Z</time>
      </trkpt>
      <trkpt lat="44.42959" lon="5.02716">
        <ele>298.63</ele>
        <time>2011-06-24T13:54:19Z</time>
      </trkpt>
      <trkpt lat="44.42959" lon="5.02716">
        <ele>301.51</ele>
        <time>2011-06-24T13:54:22Z</time>
      </trkpt>
      <trkpt lat="44.42958" lon="5.02718">
        <ele>302.95</ele>
        <time>2011-06-24T13:54:24Z</time>
      </trkpt>
      <trkpt lat="44.42958" lon="5.02727">
        <ele>306.32</ele>
        <time>2011-06-24T13:54:29Z</time>
      </trkpt>
      <trkpt lat="44.42959" lon="5.02729">
        <ele>308.24</ele>
        <time>2011-06-24T13:54:32Z</time>
      </trkpt>
      <trkpt lat="44.42962" lon="5.02733">
        <ele>309.68</ele>
        <time>2011-06-24T13:54:37Z</time>
      </trkpt>
      <trkpt lat="44.42963" lon="5.02734">
        <ele>310.16</ele>
        <time>2011-06-24T13:54:38Z</time>
      </trkpt>
      <trkpt lat="44.42965" lon="5.02735">
        <ele>311.12</ele>
        <time>2011-06-24T13:54:40Z</time>
      </trkpt>
      <trkpt lat="44.42969" lon="5.0274">
        <ele>314.01</ele>
        <time>2011-06-24T13:54:47Z</time>
      </trkpt>
      <trkpt lat="44.42974" lon="5.02743">
        <ele>315.45</ele>
        <time>2011-06-24T13:54:52Z</time>
      </trkpt>
      <trkpt lat="44.42992" lon="5.02756">
        <ele>317.37</ele>
        <time>2011-06-24T13:55:08Z</time>
      </trkpt>
      <trkpt lat="44.43013" lon="5.02768">
        <ele>318.33</ele>
        <time>2011-06-24T13:55:26Z</time>
      </trkpt>
      <trkpt lat="44.43034" lon="5.0278">
        <ele>318.81</ele>
        <time>2011-06-24T13:55:44Z</time>
      </trkpt>
      <trkpt lat="44.4304" lon="5.02783">
        <ele>319.78</ele>
        <time>2011-06-24T13:55:49Z</time>
      </trkpt>
      <trkpt lat="44.43062" lon="5.02798">
        <ele>319.3</ele>
        <time>2011-06-24T13:56:09Z</time>
      </trkpt>
      <trkpt lat="44.43066" lon="5.02823">
        <ele>320.26</ele>
        <time>2011-06-24T13:56:25Z</time>
      </trkpt>
      <trkpt lat="44.43061" lon="5.0284">
        <ele>319.78</ele>
        <time>2011-06-24T13:56:36Z</time>
      </trkpt>
      <trkpt lat="44.43072" lon="5.02863">
        <ele>321.7</ele>
        <time>2011-06-24T13:56:54Z</time>
      </trkpt>
      <trkpt lat="44.43087" lon="5.02883">
        <ele>323.14</ele>
        <time>2011-06-24T13:57:12Z</time>
      </trkpt>
      <trkpt lat="44.43103" lon="5.02896">
        <ele>323.62</ele>
        <time>2011-06-24T13:57:29Z</time>
      </trkpt>
      <trkpt lat="44.43118" lon="5.02897">
        <ele>324.58</ele>
        <time>2011-06-24T13:57:44Z</time>
      </trkpt>
      <trkpt lat="44.43121" lon="5.02898">
        <ele>323.62</ele>
        <time>2011-06-24T13:57:46Z</time>
      </trkpt>
      <trkpt lat="44.43124" lon="5.02898">
        <ele>326.02</ele>
        <time>2011-06-24T13:57:49Z</time>
      </trkpt>
      <trkpt lat="44.43141" lon="5.02902">
        <ele>327.47</ele>
        <time>2011-06-24T13:58:04Z</time>
      </trkpt>
      <trkpt lat="44.43159" lon="5.02906">
        <ele>328.43</ele>
        <time>2011-06-24T13:58:19Z</time>
      </trkpt>
      <trkpt lat="44.43179" lon="5.02908">
        <ele>329.39</ele>
        <time>2011-06-24T13:58:35Z</time>
      </trkpt>
      <trkpt lat="44.43196" lon="5.02908">
        <ele>329.87</ele>
        <time>2011-06-24T13:58:49Z</time>
      </trkpt>
      <trkpt lat="44.43214" lon="5.02911">
        <ele>330.35</ele>
        <time>2011-06-24T13:59:04Z</time>
      </trkpt>
      <trkpt lat="44.43226" lon="5.02919">
        <ele>331.31</ele>
        <time>2011-06-24T13:59:18Z</time>
      </trkpt>
      <trkpt lat="44.43226" lon="5.02913">
        <ele>332.75</ele>
        <time>2011-06-24T13:59:31Z</time>
      </trkpt>
      <trkpt lat="44.43226" lon="5.02911">
        <ele>330.83</ele>
        <time>2011-06-24T13:59:42Z</time>
      </trkpt>
      <trkpt lat="44.43227" lon="5.02907">
        <ele>331.79</ele>
        <time>2011-06-24T13:59:54Z</time>
      </trkpt>
      <trkpt lat="44.43227" lon="5.02905">
        <ele>329.87</ele>
        <time>2011-06-24T14:00:08Z</time>
      </trkpt>
      <trkpt lat="44.43225" lon="5.02909">
        <ele>332.27</ele>
        <time>2011-06-24T14:00:15Z</time>
      </trkpt>
      <trkpt lat="44.43228" lon="5.02916">
        <ele>332.27</ele>
        <time>2011-06-24T14:00:31Z</time>
      </trkpt>
      <trkpt lat="44.43228" lon="5.02916">
        <ele>331.31</ele>
        <time>2011-06-24T14:00:51Z</time>
      </trkpt>
      <trkpt lat="44.4323" lon="5.02924">
        <ele>330.83</ele>
        <time>2011-06-24T14:01:12Z</time>
      </trkpt>
      <trkpt lat="44.43242" lon="5.02946">
        <ele>329.87</ele>
        <time>2011-06-24T14:01:30Z</time>
      </trkpt>
      <trkpt lat="44.4325" lon="5.02962">
        <ele>330.35</ele>
        <time>2011-06-24T14:01:43Z</time>
      </trkpt>
      <trkpt lat="44.43258" lon="5.02972">
        <ele>330.35</ele>
        <time>2011-06-24T14:01:52Z</time>
      </trkpt>
      <trkpt lat="44.43275" lon="5.02978">
        <ele>331.79</ele>
        <time>2011-06-24T14:02:07Z</time>
      </trkpt>
      <trkpt lat="44.43298" lon="5.0298">
        <ele>330.35</ele>
        <time>2011-06-24T14:02:26Z</time>
      </trkpt>
      <trkpt lat="44.4332" lon="5.02982">
        <ele>330.35</ele>
        <time>2011-06-24T14:02:44Z</time>
      </trkpt>
      <trkpt lat="44.4334" lon="5.02984">
        <ele>330.35</ele>
        <time>2011-06-24T14:03:01Z</time>
      </trkpt>
      <trkpt lat="44.43358" lon="5.02986">
        <ele>331.79</ele>
        <time>2011-06-24T14:03:16Z</time>
      </trkpt>
      <trkpt lat="44.43375" lon="5.02988">
        <ele>329.87</ele>
        <time>2011-06-24T14:03:30Z</time>
      </trkpt>
      <trkpt lat="44.4339" lon="5.0299">
        <ele>329.87</ele>
        <time>2011-06-24T14:03:47Z</time>
      </trkpt>
      <trkpt lat="44.43405" lon="5.02991">
        <ele>329.87</ele>
        <time>2011-06-24T14:04:02Z</time>
      </trkpt>
      <trkpt lat="44.43427" lon="5.02994">
        <ele>330.35</ele>
        <time>2011-06-24T14:04:16Z</time>
      </trkpt>
      <trkpt lat="44.43435" lon="5.02994">
        <ele>333.23</ele>
        <time>2011-06-24T14:04:25Z</time>
      </trkpt>
      <trkpt lat="44.43437" lon="5.02994">
        <ele>330.35</ele>
        <time>2011-06-24T14:04:27Z</time>
      </trkpt>
      <trkpt lat="44.43443" lon="5.02995">
        <ele>330.83</ele>
        <time>2011-06-24T14:04:35Z</time>
      </trkpt>
      <trkpt lat="44.4345" lon="5.02996">
        <ele>330.35</ele>
        <time>2011-06-24T14:04:48Z</time>
      </trkpt>
      <trkpt lat="44.43454" lon="5.02996">
        <ele>330.35</ele>
        <time>2011-06-24T14:04:52Z</time>
      </trkpt>
      <trkpt lat="44.43476" lon="5.02999">
        <ele>332.27</ele>
        <time>2011-06-24T14:05:11Z</time>
      </trkpt>
      <trkpt lat="44.43486" lon="5.02997">
        <ele>332.75</ele>
        <time>2011-06-24T14:05:28Z</time>
      </trkpt>
      <trkpt lat="44.43486" lon="5.02997">
        <ele>332.75</ele>
        <time>2011-06-24T14:05:34Z</time>
      </trkpt>
      <trkpt lat="44.43486" lon="5.02997">
        <ele>332.75</ele>
        <time>2011-06-24T14:05:53Z</time>
      </trkpt>
      <trkpt lat="44.43486" lon="5.02996">
        <ele>332.75</ele>
        <time>2011-06-24T14:06:20Z</time>
      </trkpt>
      <trkpt lat="44.43486" lon="5.02996">
        <ele>332.75</ele>
        <time>2011-06-24T14:06:40Z</time>
      </trkpt>
      <trkpt lat="44.43486" lon="5.02996">
        <ele>332.75</ele>
        <time>2011-06-24T14:06:58Z</time>
      </trkpt>
      <trkpt lat="44.43486" lon="5.02996">
        <ele>331.31</ele>
        <time>2011-06-24T14:07:23Z</time>
      </trkpt>
      <trkpt lat="44.43486" lon="5.02996">
        <ele>331.31</ele>
        <time>2011-06-24T14:07:49Z</time>
      </trkpt>
      <trkpt lat="44.43494" lon="5.02995">
        <ele>331.79</ele>
        <time>2011-06-24T14:08:05Z</time>
      </trkpt>
      <trkpt lat="44.43505" lon="5.03">
        <ele>333.71</ele>
        <time>2011-06-24T14:08:14Z</time>
      </trkpt>
      <trkpt lat="44.43509" lon="5.03036">
        <ele>333.71</ele>
        <time>2011-06-24T14:08:34Z</time>
      </trkpt>
      <trkpt lat="44.4351" lon="5.03069">
        <ele>334.68</ele>
        <time>2011-06-24T14:08:53Z</time>
      </trkpt>
      <trkpt lat="44.43509" lon="5.03077">
        <ele>336.12</ele>
        <time>2011-06-24T14:09:06Z</time>
      </trkpt>
      <trkpt lat="44.43509" lon="5.03077">
        <ele>331.79</ele>
        <time>2011-06-24T14:09:12Z</time>
      </trkpt>
      <trkpt lat="44.43509" lon="5.03077">
        <ele>332.75</ele>
        <time>2011-06-24T14:09:13Z</time>
      </trkpt>
      <trkpt lat="44.43509" lon="5.03077">
        <ele>334.68</ele>
        <time>2011-06-24T14:09:21Z</time>
      </trkpt>
      <trkpt lat="44.43508" lon="5.03091">
        <ele>335.16</ele>
        <time>2011-06-24T14:09:36Z</time>
      </trkpt>
      <trkpt lat="44.43511" lon="5.03116">
        <ele>339</ele>
        <time>2011-06-24T14:09:51Z</time>
      </trkpt>
      <trkpt lat="44.43511" lon="5.0312">
        <ele>335.64</ele>
        <time>2011-06-24T14:09:54Z</time>
      </trkpt>
      <trkpt lat="44.43511" lon="5.03148">
        <ele>337.08</ele>
        <time>2011-06-24T14:10:12Z</time>
      </trkpt>
      <trkpt lat="44.43509" lon="5.03158">
        <ele>338.52</ele>
        <time>2011-06-24T14:10:19Z</time>
      </trkpt>
      <trkpt lat="44.43509" lon="5.03164">
        <ele>338.52</ele>
        <time>2011-06-24T14:10:24Z</time>
      </trkpt>
      <trkpt lat="44.43509" lon="5.03169">
        <ele>337.56</ele>
        <time>2011-06-24T14:10:26Z</time>
      </trkpt>
      <trkpt lat="44.43511" lon="5.03191">
        <ele>339</ele>
        <time>2011-06-24T14:10:38Z</time>
      </trkpt>
      <trkpt lat="44.43511" lon="5.03199">
        <ele>339</ele>
        <time>2011-06-24T14:10:45Z</time>
      </trkpt>
      <trkpt lat="44.43513" lon="5.03225">
        <ele>340.92</ele>
        <time>2011-06-24T14:11:01Z</time>
      </trkpt>
      <trkpt lat="44.43513" lon="5.0324">
        <ele>337.08</ele>
        <time>2011-06-24T14:11:11Z</time>
      </trkpt>
      <trkpt lat="44.43513" lon="5.03242">
        <ele>340.92</ele>
        <time>2011-06-24T14:11:12Z</time>
      </trkpt>
      <trkpt lat="44.43513" lon="5.03258">
        <ele>342.37</ele>
        <time>2011-06-24T14:11:22Z</time>
      </trkpt>
      <trkpt lat="44.43513" lon="5.03278">
        <ele>343.33</ele>
        <time>2011-06-24T14:11:33Z</time>
      </trkpt>
      <trkpt lat="44.43517" lon="5.03297">
        <ele>343.33</ele>
        <time>2011-06-24T14:11:47Z</time>
      </trkpt>
      <trkpt lat="44.43516" lon="5.03323">
        <ele>345.25</ele>
        <time>2011-06-24T14:12:03Z</time>
      </trkpt>
      <trkpt lat="44.43516" lon="5.03344">
        <ele>345.73</ele>
        <time>2011-06-24T14:12:17Z</time>
      </trkpt>
      <trkpt lat="44.43516" lon="5.03361">
        <ele>349.1</ele>
        <time>2011-06-24T14:12:27Z</time>
      </trkpt>
      <trkpt lat="44.43516" lon="5.03365">
        <ele>347.65</ele>
        <time>2011-06-24T14:12:30Z</time>
      </trkpt>
      <trkpt lat="44.43517" lon="5.03393">
        <ele>347.65</ele>
        <time>2011-06-24T14:12:47Z</time>
      </trkpt>
      <trkpt lat="44.43518" lon="5.03417">
        <ele>348.62</ele>
        <time>2011-06-24T14:13:01Z</time>
      </trkpt>
      <trkpt lat="44.43519" lon="5.03439">
        <ele>349.1</ele>
        <time>2011-06-24T14:13:14Z</time>
      </trkpt>
      <trkpt lat="44.4352" lon="5.03466">
        <ele>350.54</ele>
        <time>2011-06-24T14:13:30Z</time>
      </trkpt>
      <trkpt lat="44.43523" lon="5.03488">
        <ele>350.54</ele>
        <time>2011-06-24T14:13:43Z</time>
      </trkpt>
      <trkpt lat="44.43527" lon="5.03493">
        <ele>351.02</ele>
        <time>2011-06-24T14:13:47Z</time>
      </trkpt>
      <trkpt lat="44.43528" lon="5.035">
        <ele>351.5</ele>
        <time>2011-06-24T14:13:52Z</time>
      </trkpt>
      <trkpt lat="44.43538" lon="5.0352">
        <ele>352.94</ele>
        <time>2011-06-24T14:14:07Z</time>
      </trkpt>
      <trkpt lat="44.43548" lon="5.03543">
        <ele>351.98</ele>
        <time>2011-06-24T14:14:22Z</time>
      </trkpt>
      <trkpt lat="44.43549" lon="5.03545">
        <ele>352.94</ele>
        <time>2011-06-24T14:14:25Z</time>
      </trkpt>
      <trkpt lat="44.43551" lon="5.0355">
        <ele>352.46</ele>
        <time>2011-06-24T14:14:29Z</time>
      </trkpt>
      <trkpt lat="44.43557" lon="5.03562">
        <ele>352.46</ele>
        <time>2011-06-24T14:14:37Z</time>
      </trkpt>
      <trkpt lat="44.4356" lon="5.03568">
        <ele>353.42</ele>
        <time>2011-06-24T14:14:41Z</time>
      </trkpt>
      <trkpt lat="44.43572" lon="5.03593">
        <ele>354.86</ele>
        <time>2011-06-24T14:14:59Z</time>
      </trkpt>
      <trkpt lat="44.43582" lon="5.03616">
        <ele>355.34</ele>
        <time>2011-06-24T14:15:15Z</time>
      </trkpt>
      <trkpt lat="44.43591" lon="5.03636">
        <ele>356.31</ele>
        <time>2011-06-24T14:15:30Z</time>
      </trkpt>
      <trkpt lat="44.43593" lon="5.03643">
        <ele>356.31</ele>
        <time>2011-06-24T14:15:35Z</time>
      </trkpt>
      <trkpt lat="44.43595" lon="5.03647">
        <ele>357.27</ele>
        <time>2011-06-24T14:15:43Z</time>
      </trkpt>
      <trkpt lat="44.436" lon="5.03652">
        <ele>357.27</ele>
        <time>2011-06-24T14:15:47Z</time>
      </trkpt>
      <trkpt lat="44.43608" lon="5.03669">
        <ele>357.27</ele>
        <time>2011-06-24T14:15:59Z</time>
      </trkpt>
      <trkpt lat="44.4361" lon="5.03672">
        <ele>357.27</ele>
        <time>2011-06-24T14:16:01Z</time>
      </trkpt>
      <trkpt lat="44.43613" lon="5.03679">
        <ele>357.27</ele>
        <time>2011-06-24T14:16:06Z</time>
      </trkpt>
      <trkpt lat="44.43618" lon="5.0369">
        <ele>358.23</ele>
        <time>2011-06-24T14:16:14Z</time>
      </trkpt>
      <trkpt lat="44.43626" lon="5.03708">
        <ele>360.63</ele>
        <time>2011-06-24T14:16:28Z</time>
      </trkpt>
      <trkpt lat="44.43629" lon="5.03711">
        <ele>358.71</ele>
        <time>2011-06-24T14:16:41Z</time>
      </trkpt>
      <trkpt lat="44.43629" lon="5.03708">
        <ele>358.71</ele>
        <time>2011-06-24T14:16:44Z</time>
      </trkpt>
      <trkpt lat="44.43632" lon="5.03699">
        <ele>358.71</ele>
        <time>2011-06-24T14:16:59Z</time>
      </trkpt>
      <trkpt lat="44.43632" lon="5.03699">
        <ele>358.23</ele>
        <time>2011-06-24T14:17:10Z</time>
      </trkpt>
      <trkpt lat="44.43628" lon="5.03707">
        <ele>357.75</ele>
        <time>2011-06-24T14:17:20Z</time>
      </trkpt>
      <trkpt lat="44.43628" lon="5.03703">
        <ele>356.79</ele>
        <time>2011-06-24T14:17:32Z</time>
      </trkpt>
      <trkpt lat="44.43628" lon="5.03703">
        <ele>357.75</ele>
        <time>2011-06-24T14:18:04Z</time>
      </trkpt>
      <trkpt lat="44.43628" lon="5.03701">
        <ele>358.23</ele>
        <time>2011-06-24T14:18:15Z</time>
      </trkpt>
      <trkpt lat="44.43628" lon="5.037">
        <ele>358.23</ele>
        <time>2011-06-24T14:18:20Z</time>
      </trkpt>
      <trkpt lat="44.43628" lon="5.03685">
        <ele>358.23</ele>
        <time>2011-06-24T14:18:31Z</time>
      </trkpt>
      <trkpt lat="44.43632" lon="5.03681">
        <ele>359.67</ele>
        <time>2011-06-24T14:18:40Z</time>
      </trkpt>
      <trkpt lat="44.43634" lon="5.03684">
        <ele>359.19</ele>
        <time>2011-06-24T14:18:43Z</time>
      </trkpt>
      <trkpt lat="44.43642" lon="5.03685">
        <ele>359.19</ele>
        <time>2011-06-24T14:18:58Z</time>
      </trkpt>
      <trkpt lat="44.4364" lon="5.0369">
        <ele>359.19</ele>
        <time>2011-06-24T14:19:16Z</time>
      </trkpt>
      <trkpt lat="44.43635" lon="5.03686">
        <ele>359.19</ele>
        <time>2011-06-24T14:19:33Z</time>
      </trkpt>
      <trkpt lat="44.43632" lon="5.03681">
        <ele>359.67</ele>
        <time>2011-06-24T14:19:47Z</time>
      </trkpt>
      <trkpt lat="44.43627" lon="5.0368">
        <ele>359.19</ele>
        <time>2011-06-24T14:20:00Z</time>
      </trkpt>
      <trkpt lat="44.43628" lon="5.03672">
        <ele>358.23</ele>
        <time>2011-06-24T14:20:14Z</time>
      </trkpt>
      <trkpt lat="44.43628" lon="5.03672">
        <ele>358.23</ele>
        <time>2011-06-24T14:20:44Z</time>
      </trkpt>
      <trkpt lat="44.43628" lon="5.03672">
        <ele>358.23</ele>
        <time>2011-06-24T14:21:19Z</time>
      </trkpt>
      <trkpt lat="44.43626" lon="5.03677">
        <ele>358.71</ele>
        <time>2011-06-24T14:21:42Z</time>
      </trkpt>
      <trkpt lat="44.43626" lon="5.03679">
        <ele>358.23</ele>
        <time>2011-06-24T14:21:43Z</time>
      </trkpt>
      <trkpt lat="44.43625" lon="5.03682">
        <ele>358.23</ele>
        <time>2011-06-24T14:21:46Z</time>
      </trkpt>
      <trkpt lat="44.43624" lon="5.03691">
        <ele>358.71</ele>
        <time>2011-06-24T14:21:59Z</time>
      </trkpt>
      <trkpt lat="44.43624" lon="5.03691">
        <ele>358.23</ele>
        <time>2011-06-24T14:22:21Z</time>
      </trkpt>
      <trkpt lat="44.43633" lon="5.03708">
        <ele>359.19</ele>
        <time>2011-06-24T14:22:36Z</time>
      </trkpt>
      <trkpt lat="44.43641" lon="5.03716">
        <ele>360.63</ele>
        <time>2011-06-24T14:22:49Z</time>
      </trkpt>
      <trkpt lat="44.43643" lon="5.03719">
        <ele>362.07</ele>
        <time>2011-06-24T14:22:53Z</time>
      </trkpt>
      <trkpt lat="44.43644" lon="5.03719">
        <ele>361.59</ele>
        <time>2011-06-24T14:23:10Z</time>
      </trkpt>
      <trkpt lat="44.4364" lon="5.03718">
        <ele>359.19</ele>
        <time>2011-06-24T14:23:19Z</time>
      </trkpt>
      <trkpt lat="44.43633" lon="5.03718">
        <ele>359.19</ele>
        <time>2011-06-24T14:23:26Z</time>
      </trkpt>
      <trkpt lat="44.43618" lon="5.03704">
        <ele>358.71</ele>
        <time>2011-06-24T14:23:43Z</time>
      </trkpt>
      <trkpt lat="44.43614" lon="5.03705">
        <ele>354.86</ele>
        <time>2011-06-24T14:23:53Z</time>
      </trkpt>
      <trkpt lat="44.43604" lon="5.03705">
        <ele>352.94</ele>
        <time>2011-06-24T14:24:11Z</time>
      </trkpt>
      <trkpt lat="44.43602" lon="5.03709">
        <ele>351.5</ele>
        <time>2011-06-24T14:24:26Z</time>
      </trkpt>
      <trkpt lat="44.43601" lon="5.03716">
        <ele>351.5</ele>
        <time>2011-06-24T14:24:35Z</time>
      </trkpt>
      <trkpt lat="44.43602" lon="5.03722">
        <ele>351.98</ele>
        <time>2011-06-24T14:24:38Z</time>
      </trkpt>
      <trkpt lat="44.43602" lon="5.03751">
        <ele>355.83</ele>
        <time>2011-06-24T14:24:53Z</time>
      </trkpt>
      <trkpt lat="44.43602" lon="5.03767">
        <ele>357.27</ele>
        <time>2011-06-24T14:25:06Z</time>
      </trkpt>
      <trkpt lat="44.43597" lon="5.03775">
        <ele>357.75</ele>
        <time>2011-06-24T14:25:16Z</time>
      </trkpt>
      <trkpt lat="44.43591" lon="5.03794">
        <ele>359.19</ele>
        <time>2011-06-24T14:25:31Z</time>
      </trkpt>
      <trkpt lat="44.43581" lon="5.03809">
        <ele>358.71</ele>
        <time>2011-06-24T14:25:45Z</time>
      </trkpt>
      <trkpt lat="44.43578" lon="5.03813">
        <ele>359.67</ele>
        <time>2011-06-24T14:25:51Z</time>
      </trkpt>
      <trkpt lat="44.43575" lon="5.03826">
        <ele>359.67</ele>
        <time>2011-06-24T14:25:59Z</time>
      </trkpt>
      <trkpt lat="44.43575" lon="5.0383">
        <ele>359.67</ele>
        <time>2011-06-24T14:26:01Z</time>
      </trkpt>
      <trkpt lat="44.43566" lon="5.03856">
        <ele>359.67</ele>
        <time>2011-06-24T14:26:20Z</time>
      </trkpt>
      <trkpt lat="44.43563" lon="5.03876">
        <ele>361.11</ele>
        <time>2011-06-24T14:26:35Z</time>
      </trkpt>
      <trkpt lat="44.43555" lon="5.03894">
        <ele>361.59</ele>
        <time>2011-06-24T14:26:52Z</time>
      </trkpt>
      <trkpt lat="44.43552" lon="5.03902">
        <ele>362.07</ele>
        <time>2011-06-24T14:26:57Z</time>
      </trkpt>
      <trkpt lat="44.4354" lon="5.03924">
        <ele>363.04</ele>
        <time>2011-06-24T14:27:13Z</time>
      </trkpt>
      <trkpt lat="44.43534" lon="5.03947">
        <ele>362.55</ele>
        <time>2011-06-24T14:27:29Z</time>
      </trkpt>
      <trkpt lat="44.43534" lon="5.03965">
        <ele>364.48</ele>
        <time>2011-06-24T14:27:42Z</time>
      </trkpt>
      <trkpt lat="44.43526" lon="5.03988">
        <ele>365.92</ele>
        <time>2011-06-24T14:27:59Z</time>
      </trkpt>
      <trkpt lat="44.43521" lon="5.04006">
        <ele>365.92</ele>
        <time>2011-06-24T14:28:13Z</time>
      </trkpt>
      <trkpt lat="44.4352" lon="5.04009">
        <ele>365.92</ele>
        <time>2011-06-24T14:28:15Z</time>
      </trkpt>
      <trkpt lat="44.43515" lon="5.04015">
        <ele>367.84</ele>
        <time>2011-06-24T14:28:20Z</time>
      </trkpt>
      <trkpt lat="44.43508" lon="5.04036">
        <ele>367.84</ele>
        <time>2011-06-24T14:28:35Z</time>
      </trkpt>
      <trkpt lat="44.435" lon="5.04058">
        <ele>368.8</ele>
        <time>2011-06-24T14:28:52Z</time>
      </trkpt>
      <trkpt lat="44.43493" lon="5.04076">
        <ele>370.24</ele>
        <time>2011-06-24T14:29:07Z</time>
      </trkpt>
      <trkpt lat="44.43483" lon="5.04095">
        <ele>369.28</ele>
        <time>2011-06-24T14:29:23Z</time>
      </trkpt>
      <trkpt lat="44.4348" lon="5.04104">
        <ele>371.21</ele>
        <time>2011-06-24T14:29:30Z</time>
      </trkpt>
      <trkpt lat="44.43479" lon="5.0411">
        <ele>370.73</ele>
        <time>2011-06-24T14:29:34Z</time>
      </trkpt>
      <trkpt lat="44.43471" lon="5.04136">
        <ele>372.17</ele>
        <time>2011-06-24T14:29:52Z</time>
      </trkpt>
      <trkpt lat="44.43462" lon="5.04155">
        <ele>374.09</ele>
        <time>2011-06-24T14:30:07Z</time>
      </trkpt>
      <trkpt lat="44.43453" lon="5.04175">
        <ele>375.53</ele>
        <time>2011-06-24T14:30:23Z</time>
      </trkpt>
      <trkpt lat="44.43445" lon="5.0419">
        <ele>376.01</ele>
        <time>2011-06-24T14:30:37Z</time>
      </trkpt>
      <trkpt lat="44.43442" lon="5.04198">
        <ele>377.94</ele>
        <time>2011-06-24T14:30:50Z</time>
      </trkpt>
      <trkpt lat="44.43442" lon="5.04214">
        <ele>378.9</ele>
        <time>2011-06-24T14:31:03Z</time>
      </trkpt>
      <trkpt lat="44.4344" lon="5.04231">
        <ele>380.34</ele>
        <time>2011-06-24T14:31:18Z</time>
      </trkpt>
      <trkpt lat="44.43438" lon="5.04247">
        <ele>382.74</ele>
        <time>2011-06-24T14:31:32Z</time>
      </trkpt>
      <trkpt lat="44.43438" lon="5.04256">
        <ele>383.7</ele>
        <time>2011-06-24T14:31:39Z</time>
      </trkpt>
      <trkpt lat="44.43437" lon="5.04264">
        <ele>384.66</ele>
        <time>2011-06-24T14:31:55Z</time>
      </trkpt>
      <trkpt lat="44.43436" lon="5.04266">
        <ele>385.15</ele>
        <time>2011-06-24T14:31:56Z</time>
      </trkpt>
      <trkpt lat="44.43434" lon="5.04287">
        <ele>386.11</ele>
        <time>2011-06-24T14:32:12Z</time>
      </trkpt>
      <trkpt lat="44.43431" lon="5.04305">
        <ele>387.55</ele>
        <time>2011-06-24T14:32:27Z</time>
      </trkpt>
      <trkpt lat="44.43429" lon="5.04316">
        <ele>389.47</ele>
        <time>2011-06-24T14:32:36Z</time>
      </trkpt>
      <trkpt lat="44.43424" lon="5.04338">
        <ele>389.95</ele>
        <time>2011-06-24T14:32:51Z</time>
      </trkpt>
      <trkpt lat="44.43418" lon="5.04353">
        <ele>393.32</ele>
        <time>2011-06-24T14:33:05Z</time>
      </trkpt>
      <trkpt lat="44.43413" lon="5.04371">
        <ele>393.32</ele>
        <time>2011-06-24T14:33:20Z</time>
      </trkpt>
      <trkpt lat="44.43411" lon="5.04375">
        <ele>394.28</ele>
        <time>2011-06-24T14:33:33Z</time>
      </trkpt>
      <trkpt lat="44.43411" lon="5.04375">
        <ele>393.8</ele>
        <time>2011-06-24T14:33:41Z</time>
      </trkpt>
      <trkpt lat="44.43408" lon="5.04378">
        <ele>393.32</ele>
        <time>2011-06-24T14:33:44Z</time>
      </trkpt>
      <trkpt lat="44.43405" lon="5.04386">
        <ele>392.84</ele>
        <time>2011-06-24T14:33:50Z</time>
      </trkpt>
      <trkpt lat="44.43404" lon="5.04389">
        <ele>392.84</ele>
        <time>2011-06-24T14:33:52Z</time>
      </trkpt>
      <trkpt lat="44.43394" lon="5.04412">
        <ele>396.2</ele>
        <time>2011-06-24T14:34:08Z</time>
      </trkpt>
      <trkpt lat="44.43389" lon="5.04423">
        <ele>393.32</ele>
        <time>2011-06-24T14:34:16Z</time>
      </trkpt>
      <trkpt lat="44.43387" lon="5.04431">
        <ele>394.76</ele>
        <time>2011-06-24T14:34:21Z</time>
      </trkpt>
      <trkpt lat="44.43385" lon="5.04437">
        <ele>392.36</ele>
        <time>2011-06-24T14:34:25Z</time>
      </trkpt>
      <trkpt lat="44.43383" lon="5.04441">
        <ele>394.28</ele>
        <time>2011-06-24T14:34:28Z</time>
      </trkpt>
      <trkpt lat="44.43373" lon="5.04465">
        <ele>394.28</ele>
        <time>2011-06-24T14:34:45Z</time>
      </trkpt>
      <trkpt lat="44.43366" lon="5.04481">
        <ele>395.72</ele>
        <time>2011-06-24T14:34:58Z</time>
      </trkpt>
      <trkpt lat="44.43357" lon="5.04504">
        <ele>395.72</ele>
        <time>2011-06-24T14:35:14Z</time>
      </trkpt>
      <trkpt lat="44.43354" lon="5.0451">
        <ele>396.2</ele>
        <time>2011-06-24T14:35:19Z</time>
      </trkpt>
      <trkpt lat="44.43346" lon="5.04529">
        <ele>397.16</ele>
        <time>2011-06-24T14:35:34Z</time>
      </trkpt>
      <trkpt lat="44.43336" lon="5.04549">
        <ele>398.6</ele>
        <time>2011-06-24T14:35:50Z</time>
      </trkpt>
      <trkpt lat="44.43329" lon="5.04566">
        <ele>400.05</ele>
        <time>2011-06-24T14:36:05Z</time>
      </trkpt>
      <trkpt lat="44.43323" lon="5.04583">
        <ele>401.49</ele>
        <time>2011-06-24T14:36:20Z</time>
      </trkpt>
      <trkpt lat="44.43321" lon="5.04598">
        <ele>403.89</ele>
        <time>2011-06-24T14:36:34Z</time>
      </trkpt>
      <trkpt lat="44.43321" lon="5.04601">
        <ele>403.89</ele>
        <time>2011-06-24T14:36:38Z</time>
      </trkpt>
      <trkpt lat="44.4332" lon="5.04603">
        <ele>403.89</ele>
        <time>2011-06-24T14:36:40Z</time>
      </trkpt>
      <trkpt lat="44.43312" lon="5.04623">
        <ele>403.89</ele>
        <time>2011-06-24T14:36:54Z</time>
      </trkpt>
      <trkpt lat="44.43311" lon="5.04629">
        <ele>405.33</ele>
        <time>2011-06-24T14:37:08Z</time>
      </trkpt>
      <trkpt lat="44.43307" lon="5.0464">
        <ele>404.85</ele>
        <time>2011-06-24T14:37:25Z</time>
      </trkpt>
      <trkpt lat="44.43298" lon="5.0466">
        <ele>406.29</ele>
        <time>2011-06-24T14:37:40Z</time>
      </trkpt>
      <trkpt lat="44.43284" lon="5.04676">
        <ele>406.29</ele>
        <time>2011-06-24T14:37:57Z</time>
      </trkpt>
      <trkpt lat="44.43274" lon="5.04683">
        <ele>406.29</ele>
        <time>2011-06-24T14:38:10Z</time>
      </trkpt>
      <trkpt lat="44.43274" lon="5.04683">
        <ele>405.33</ele>
        <time>2011-06-24T14:38:26Z</time>
      </trkpt>
      <trkpt lat="44.43274" lon="5.04683">
        <ele>406.29</ele>
        <time>2011-06-24T14:38:59Z</time>
      </trkpt>
      <trkpt lat="44.43274" lon="5.04683">
        <ele>407.26</ele>
        <time>2011-06-24T14:39:14Z</time>
      </trkpt>
      <trkpt lat="44.43275" lon="5.04686">
        <ele>407.74</ele>
        <time>2011-06-24T14:39:34Z</time>
      </trkpt>
      <trkpt lat="44.43271" lon="5.0469">
        <ele>408.22</ele>
        <time>2011-06-24T14:39:39Z</time>
      </trkpt>
      <trkpt lat="44.43265" lon="5.04697">
        <ele>406.29</ele>
        <time>2011-06-24T14:39:45Z</time>
      </trkpt>
      <trkpt lat="44.43258" lon="5.04704">
        <ele>405.81</ele>
        <time>2011-06-24T14:39:53Z</time>
      </trkpt>
      <trkpt lat="44.43248" lon="5.04718">
        <ele>403.89</ele>
        <time>2011-06-24T14:40:08Z</time>
      </trkpt>
      <trkpt lat="44.43238" lon="5.04727">
        <ele>403.41</ele>
        <time>2011-06-24T14:40:19Z</time>
      </trkpt>
      <trkpt lat="44.43224" lon="5.04738">
        <ele>401.97</ele>
        <time>2011-06-24T14:40:33Z</time>
      </trkpt>
      <trkpt lat="44.4321" lon="5.04746">
        <ele>400.53</ele>
        <time>2011-06-24T14:40:48Z</time>
      </trkpt>
      <trkpt lat="44.43208" lon="5.04747">
        <ele>400.53</ele>
        <time>2011-06-24T14:40:50Z</time>
      </trkpt>
      <trkpt lat="44.43196" lon="5.04757">
        <ele>400.05</ele>
        <time>2011-06-24T14:41:03Z</time>
      </trkpt>
      <trkpt lat="44.43192" lon="5.04761">
        <ele>399.08</ele>
        <time>2011-06-24T14:41:08Z</time>
      </trkpt>
      <trkpt lat="44.43174" lon="5.04779">
        <ele>397.16</ele>
        <time>2011-06-24T14:41:23Z</time>
      </trkpt>
      <trkpt lat="44.43173" lon="5.0478">
        <ele>397.16</ele>
        <time>2011-06-24T14:41:24Z</time>
      </trkpt>
      <trkpt lat="44.43163" lon="5.0479">
        <ele>396.68</ele>
        <time>2011-06-24T14:41:37Z</time>
      </trkpt>
      <trkpt lat="44.43152" lon="5.04804">
        <ele>396.2</ele>
        <time>2011-06-24T14:41:48Z</time>
      </trkpt>
      <trkpt lat="44.43143" lon="5.04809">
        <ele>395.24</ele>
        <time>2011-06-24T14:41:56Z</time>
      </trkpt>
      <trkpt lat="44.43139" lon="5.04812">
        <ele>394.76</ele>
        <time>2011-06-24T14:42:00Z</time>
      </trkpt>
      <trkpt lat="44.43124" lon="5.04824">
        <ele>394.76</ele>
        <time>2011-06-24T14:42:13Z</time>
      </trkpt>
      <trkpt lat="44.43116" lon="5.0483">
        <ele>394.28</ele>
        <time>2011-06-24T14:42:21Z</time>
      </trkpt>
      <trkpt lat="44.43105" lon="5.04836">
        <ele>393.8</ele>
        <time>2011-06-24T14:42:31Z</time>
      </trkpt>
      <trkpt lat="44.43088" lon="5.04844">
        <ele>391.87</ele>
        <time>2011-06-24T14:42:44Z</time>
      </trkpt>
      <trkpt lat="44.43086" lon="5.04847">
        <ele>391.87</ele>
        <time>2011-06-24T14:42:46Z</time>
      </trkpt>
      <trkpt lat="44.4308" lon="5.04851">
        <ele>391.39</ele>
        <time>2011-06-24T14:42:54Z</time>
      </trkpt>
      <trkpt lat="44.43063" lon="5.04858">
        <ele>390.43</ele>
        <time>2011-06-24T14:43:08Z</time>
      </trkpt>
      <trkpt lat="44.43045" lon="5.04867">
        <ele>388.51</ele>
        <time>2011-06-24T14:43:25Z</time>
      </trkpt>
      <trkpt lat="44.43044" lon="5.04868">
        <ele>388.51</ele>
        <time>2011-06-24T14:43:26Z</time>
      </trkpt>
      <trkpt lat="44.4304" lon="5.04875">
        <ele>388.03</ele>
        <time>2011-06-24T14:43:31Z</time>
      </trkpt>
      <trkpt lat="44.43033" lon="5.04904">
        <ele>388.03</ele>
        <time>2011-06-24T14:43:52Z</time>
      </trkpt>
      <trkpt lat="44.4303" lon="5.04907">
        <ele>388.03</ele>
        <time>2011-06-24T14:43:54Z</time>
      </trkpt>
      <trkpt lat="44.43028" lon="5.04911">
        <ele>388.03</ele>
        <time>2011-06-24T14:43:56Z</time>
      </trkpt>
      <trkpt lat="44.43024" lon="5.04936">
        <ele>388.03</ele>
        <time>2011-06-24T14:44:11Z</time>
      </trkpt>
      <trkpt lat="44.43023" lon="5.04938">
        <ele>387.55</ele>
        <time>2011-06-24T14:44:13Z</time>
      </trkpt>
      <trkpt lat="44.43018" lon="5.0494">
        <ele>387.55</ele>
        <time>2011-06-24T14:44:19Z</time>
      </trkpt>
      <trkpt lat="44.43015" lon="5.04937">
        <ele>387.55</ele>
        <time>2011-06-24T14:44:23Z</time>
      </trkpt>
      <trkpt lat="44.42996" lon="5.04925">
        <ele>385.63</ele>
        <time>2011-06-24T14:44:36Z</time>
      </trkpt>
      <trkpt lat="44.42987" lon="5.04918">
        <ele>386.11</ele>
        <time>2011-06-24T14:44:47Z</time>
      </trkpt>
      <trkpt lat="44.42984" lon="5.04913">
        <ele>386.11</ele>
        <time>2011-06-24T14:44:51Z</time>
      </trkpt>
      <trkpt lat="44.42981" lon="5.04908">
        <ele>385.15</ele>
        <time>2011-06-24T14:44:58Z</time>
      </trkpt>
      <trkpt lat="44.42976" lon="5.049">
        <ele>384.66</ele>
        <time>2011-06-24T14:45:07Z</time>
      </trkpt>
      <trkpt lat="44.42966" lon="5.04896">
        <ele>385.15</ele>
        <time>2011-06-24T14:45:15Z</time>
      </trkpt>
      <trkpt lat="44.42963" lon="5.049">
        <ele>385.63</ele>
        <time>2011-06-24T14:45:20Z</time>
      </trkpt>
      <trkpt lat="44.42953" lon="5.04916">
        <ele>385.63</ele>
        <time>2011-06-24T14:45:33Z</time>
      </trkpt>
      <trkpt lat="44.42952" lon="5.04917">
        <ele>385.63</ele>
        <time>2011-06-24T14:45:34Z</time>
      </trkpt>
      <trkpt lat="44.42947" lon="5.04923">
        <ele>385.15</ele>
        <time>2011-06-24T14:45:38Z</time>
      </trkpt>
      <trkpt lat="44.42933" lon="5.04943">
        <ele>385.63</ele>
        <time>2011-06-24T14:45:52Z</time>
      </trkpt>
      <trkpt lat="44.42927" lon="5.04951">
        <ele>385.63</ele>
        <time>2011-06-24T14:46:05Z</time>
      </trkpt>
      <trkpt lat="44.42926" lon="5.04957">
        <ele>385.63</ele>
        <time>2011-06-24T14:46:14Z</time>
      </trkpt>
      <trkpt lat="44.42924" lon="5.04969">
        <ele>386.59</ele>
        <time>2011-06-24T14:46:23Z</time>
      </trkpt>
      <trkpt lat="44.42926" lon="5.04973">
        <ele>386.11</ele>
        <time>2011-06-24T14:46:38Z</time>
      </trkpt>
      <trkpt lat="44.42928" lon="5.04975">
        <ele>387.07</ele>
        <time>2011-06-24T14:46:44Z</time>
      </trkpt>
      <trkpt lat="44.42927" lon="5.04975">
        <ele>386.11</ele>
        <time>2011-06-24T14:46:53Z</time>
      </trkpt>
      <trkpt lat="44.42923" lon="5.04973">
        <ele>386.59</ele>
        <time>2011-06-24T14:47:11Z</time>
      </trkpt>
      <trkpt lat="44.42924" lon="5.04973">
        <ele>386.11</ele>
        <time>2011-06-24T14:47:21Z</time>
      </trkpt>
      <trkpt lat="44.42925" lon="5.04972">
        <ele>386.59</ele>
        <time>2011-06-24T14:47:43Z</time>
      </trkpt>
      <trkpt lat="44.42925" lon="5.04972">
        <ele>385.63</ele>
        <time>2011-06-24T14:47:44Z</time>
      </trkpt>
      <trkpt lat="44.42921" lon="5.04981">
        <ele>385.63</ele>
        <time>2011-06-24T14:48:00Z</time>
      </trkpt>
      <trkpt lat="44.42921" lon="5.04981">
        <ele>388.51</ele>
        <time>2011-06-24T14:48:01Z</time>
      </trkpt>
      <trkpt lat="44.42922" lon="5.04981">
        <ele>392.84</ele>
        <time>2011-06-24T14:48:05Z</time>
      </trkpt>
      <trkpt lat="44.42922" lon="5.04981">
        <ele>388.03</ele>
        <time>2011-06-24T14:48:06Z</time>
      </trkpt>
      <trkpt lat="44.42923" lon="5.04983">
        <ele>390.43</ele>
        <time>2011-06-24T14:48:08Z</time>
      </trkpt>
      <trkpt lat="44.42925" lon="5.04986">
        <ele>394.28</ele>
        <time>2011-06-24T14:48:14Z</time>
      </trkpt>
      <trkpt lat="44.42925" lon="5.04986">
        <ele>387.55</ele>
        <time>2011-06-24T14:48:15Z</time>
      </trkpt>
      <trkpt lat="44.42925" lon="5.04986">
        <ele>391.39</ele>
        <time>2011-06-24T14:48:16Z</time>
      </trkpt>
      <trkpt lat="44.42925" lon="5.04988">
        <ele>387.55</ele>
        <time>2011-06-24T14:48:19Z</time>
      </trkpt>
      <trkpt lat="44.42923" lon="5.04989">
        <ele>390.91</ele>
        <time>2011-06-24T14:48:21Z</time>
      </trkpt>
      <trkpt lat="44.42922" lon="5.04991">
        <ele>389.47</ele>
        <time>2011-06-24T14:48:23Z</time>
      </trkpt>
      <trkpt lat="44.42921" lon="5.04995">
        <ele>390.91</ele>
        <time>2011-06-24T14:48:25Z</time>
      </trkpt>
      <trkpt lat="44.42921" lon="5.04999">
        <ele>387.07</ele>
        <time>2011-06-24T14:48:28Z</time>
      </trkpt>
      <trkpt lat="44.42921" lon="5.04999">
        <ele>394.76</ele>
        <time>2011-06-24T14:48:29Z</time>
      </trkpt>
      <trkpt lat="44.42921" lon="5.05">
        <ele>391.39</ele>
        <time>2011-06-24T14:48:30Z</time>
      </trkpt>
      <trkpt lat="44.42921" lon="5.05">
        <ele>388.03</ele>
        <time>2011-06-24T14:48:31Z</time>
      </trkpt>
      <trkpt lat="44.42921" lon="5.05">
        <ele>392.84</ele>
        <time>2011-06-24T14:48:32Z</time>
      </trkpt>
      <trkpt lat="44.42921" lon="5.05">
        <ele>389.47</ele>
        <time>2011-06-24T14:48:33Z</time>
      </trkpt>
      <trkpt lat="44.42921" lon="5.05">
        <ele>394.76</ele>
        <time>2011-06-24T14:48:34Z</time>
      </trkpt>
      <trkpt lat="44.42921" lon="5.05001">
        <ele>391.39</ele>
        <time>2011-06-24T14:48:35Z</time>
      </trkpt>
      <trkpt lat="44.4292" lon="5.05001">
        <ele>391.39</ele>
        <time>2011-06-24T14:48:37Z</time>
      </trkpt>
      <trkpt lat="44.42919" lon="5.05004">
        <ele>390.43</ele>
        <time>2011-06-24T14:48:40Z</time>
      </trkpt>
      <trkpt lat="44.42918" lon="5.05005">
        <ele>395.72</ele>
        <time>2011-06-24T14:48:41Z</time>
      </trkpt>
      <trkpt lat="44.42917" lon="5.05008">
        <ele>392.36</ele>
        <time>2011-06-24T14:48:46Z</time>
      </trkpt>
      <trkpt lat="44.42915" lon="5.0501">
        <ele>394.76</ele>
        <time>2011-06-24T14:48:48Z</time>
      </trkpt>
      <trkpt lat="44.42912" lon="5.05011">
        <ele>397.16</ele>
        <time>2011-06-24T14:48:53Z</time>
      </trkpt>
      <trkpt lat="44.42911" lon="5.05012">
        <ele>395.24</ele>
        <time>2011-06-24T14:48:55Z</time>
      </trkpt>
      <trkpt lat="44.4291" lon="5.05013">
        <ele>396.2</ele>
        <time>2011-06-24T14:48:57Z</time>
      </trkpt>
      <trkpt lat="44.42908" lon="5.05015">
        <ele>397.64</ele>
        <time>2011-06-24T14:49:03Z</time>
      </trkpt>
      <trkpt lat="44.42915" lon="5.05022">
        <ele>401.49</ele>
        <time>2011-06-24T14:49:18Z</time>
      </trkpt>
      <trkpt lat="44.42915" lon="5.05022">
        <ele>399.08</ele>
        <time>2011-06-24T14:49:19Z</time>
      </trkpt>
      <trkpt lat="44.42915" lon="5.05022">
        <ele>395.24</ele>
        <time>2011-06-24T14:49:20Z</time>
      </trkpt>
      <trkpt lat="44.42915" lon="5.05022">
        <ele>400.05</ele>
        <time>2011-06-24T14:49:21Z</time>
      </trkpt>
      <trkpt lat="44.42918" lon="5.05025">
        <ele>395.24</ele>
        <time>2011-06-24T14:49:22Z</time>
      </trkpt>
      <trkpt lat="44.42918" lon="5.05034">
        <ele>396.68</ele>
        <time>2011-06-24T14:49:27Z</time>
      </trkpt>
      <trkpt lat="44.42918" lon="5.05034">
        <ele>402.93</ele>
        <time>2011-06-24T14:49:28Z</time>
      </trkpt>
      <trkpt lat="44.42918" lon="5.05035">
        <ele>397.64</ele>
        <time>2011-06-24T14:49:29Z</time>
      </trkpt>
      <trkpt lat="44.42918" lon="5.05035">
        <ele>401.01</ele>
        <time>2011-06-24T14:49:30Z</time>
      </trkpt>
      <trkpt lat="44.42918" lon="5.05035">
        <ele>404.37</ele>
        <time>2011-06-24T14:49:31Z</time>
      </trkpt>
      <trkpt lat="44.42918" lon="5.05035">
        <ele>400.53</ele>
        <time>2011-06-24T14:49:32Z</time>
      </trkpt>
      <trkpt lat="44.42912" lon="5.05047">
        <ele>400.53</ele>
        <time>2011-06-24T14:49:47Z</time>
      </trkpt>
      <trkpt lat="44.4291" lon="5.05061">
        <ele>401.97</ele>
        <time>2011-06-24T14:50:03Z</time>
      </trkpt>
      <trkpt lat="44.42909" lon="5.05064">
        <ele>400.53</ele>
        <time>2011-06-24T14:50:05Z</time>
      </trkpt>
      <trkpt lat="44.42901" lon="5.05073">
        <ele>404.85</ele>
        <time>2011-06-24T14:50:19Z</time>
      </trkpt>
      <trkpt lat="44.42902" lon="5.05073">
        <ele>401.01</ele>
        <time>2011-06-24T14:50:20Z</time>
      </trkpt>
      <trkpt lat="44.42902" lon="5.05074">
        <ele>401.49</ele>
        <time>2011-06-24T14:50:34Z</time>
      </trkpt>
      <trkpt lat="44.42903" lon="5.05073">
        <ele>402.45</ele>
        <time>2011-06-24T14:50:59Z</time>
      </trkpt>
      <trkpt lat="44.42903" lon="5.05073">
        <ele>402.93</ele>
        <time>2011-06-24T14:51:28Z</time>
      </trkpt>
      <trkpt lat="44.42906" lon="5.05072">
        <ele>401.01</ele>
        <time>2011-06-24T14:51:49Z</time>
      </trkpt>
      <trkpt lat="44.42911" lon="5.05068">
        <ele>403.41</ele>
        <time>2011-06-24T14:52:05Z</time>
      </trkpt>
      <trkpt lat="44.4291" lon="5.05068">
        <ele>402.93</ele>
        <time>2011-06-24T14:52:06Z</time>
      </trkpt>
      <trkpt lat="44.42904" lon="5.05066">
        <ele>401.97</ele>
        <time>2011-06-24T14:52:20Z</time>
      </trkpt>
      <trkpt lat="44.4291" lon="5.0506">
        <ele>402.45</ele>
        <time>2011-06-24T14:52:29Z</time>
      </trkpt>
      <trkpt lat="44.42912" lon="5.0505">
        <ele>400.53</ele>
        <time>2011-06-24T14:52:44Z</time>
      </trkpt>
      <trkpt lat="44.42922" lon="5.05043">
        <ele>401.01</ele>
        <time>2011-06-24T14:52:55Z</time>
      </trkpt>
      <trkpt lat="44.42927" lon="5.05047">
        <ele>402.45</ele>
        <time>2011-06-24T14:53:02Z</time>
      </trkpt>
      <trkpt lat="44.42931" lon="5.05044">
        <ele>403.41</ele>
        <time>2011-06-24T14:53:06Z</time>
      </trkpt>
      <trkpt lat="44.42936" lon="5.05036">
        <ele>403.41</ele>
        <time>2011-06-24T14:53:13Z</time>
      </trkpt>
      <trkpt lat="44.42937" lon="5.05035">
        <ele>401.49</ele>
        <time>2011-06-24T14:53:26Z</time>
      </trkpt>
      <trkpt lat="44.42937" lon="5.05035">
        <ele>401.97</ele>
        <time>2011-06-24T14:53:45Z</time>
      </trkpt>
      <trkpt lat="44.42935" lon="5.05031">
        <ele>404.37</ele>
        <time>2011-06-24T14:54:03Z</time>
      </trkpt>
      <trkpt lat="44.42933" lon="5.05034">
        <ele>400.53</ele>
        <time>2011-06-24T14:54:09Z</time>
      </trkpt>
      <trkpt lat="44.42933" lon="5.05035">
        <ele>405.81</ele>
        <time>2011-06-24T14:54:10Z</time>
      </trkpt>
      <trkpt lat="44.42932" lon="5.0504">
        <ele>405.33</ele>
        <time>2011-06-24T14:54:21Z</time>
      </trkpt>
      <trkpt lat="44.4293" lon="5.05047">
        <ele>407.74</ele>
        <time>2011-06-24T14:54:28Z</time>
      </trkpt>
      <trkpt lat="44.42929" lon="5.05057">
        <ele>408.22</ele>
        <time>2011-06-24T14:54:39Z</time>
      </trkpt>
      <trkpt lat="44.42922" lon="5.05064">
        <ele>404.85</ele>
        <time>2011-06-24T14:54:52Z</time>
      </trkpt>
      <trkpt lat="44.42922" lon="5.05064">
        <ele>406.29</ele>
        <time>2011-06-24T14:55:01Z</time>
      </trkpt>
      <trkpt lat="44.42926" lon="5.05062">
        <ele>406.77</ele>
        <time>2011-06-24T14:55:16Z</time>
      </trkpt>
      <trkpt lat="44.42936" lon="5.05051">
        <ele>406.29</ele>
        <time>2011-06-24T14:55:32Z</time>
      </trkpt>
      <trkpt lat="44.42937" lon="5.05047">
        <ele>406.29</ele>
        <time>2011-06-24T14:55:35Z</time>
      </trkpt>
      <trkpt lat="44.42939" lon="5.05039">
        <ele>402.93</ele>
        <time>2011-06-24T14:55:50Z</time>
      </trkpt>
      <trkpt lat="44.4294" lon="5.05038">
        <ele>402.93</ele>
        <time>2011-06-24T14:55:51Z</time>
      </trkpt>
      <trkpt lat="44.42942" lon="5.05035">
        <ele>404.37</ele>
        <time>2011-06-24T14:55:54Z</time>
      </trkpt>
      <trkpt lat="44.42942" lon="5.05032">
        <ele>401.01</ele>
        <time>2011-06-24T14:56:09Z</time>
      </trkpt>
      <trkpt lat="44.42942" lon="5.05031">
        <ele>400.53</ele>
        <time>2011-06-24T14:56:29Z</time>
      </trkpt>
      <trkpt lat="44.42947" lon="5.05018">
        <ele>399.57</ele>
        <time>2011-06-24T14:56:43Z</time>
      </trkpt>
      <trkpt lat="44.42947" lon="5.05014">
        <ele>397.64</ele>
        <time>2011-06-24T14:56:57Z</time>
      </trkpt>
      <trkpt lat="44.42947" lon="5.05014">
        <ele>397.16</ele>
        <time>2011-06-24T14:57:15Z</time>
      </trkpt>
      <trkpt lat="44.42939" lon="5.05021">
        <ele>394.76</ele>
        <time>2011-06-24T14:57:27Z</time>
      </trkpt>
      <trkpt lat="44.42931" lon="5.05017">
        <ele>393.32</ele>
        <time>2011-06-24T14:57:34Z</time>
      </trkpt>
      <trkpt lat="44.42927" lon="5.0501">
        <ele>393.32</ele>
        <time>2011-06-24T14:57:41Z</time>
      </trkpt>
      <trkpt lat="44.42927" lon="5.05009">
        <ele>393.32</ele>
        <time>2011-06-24T14:57:43Z</time>
      </trkpt>
      <trkpt lat="44.42928" lon="5.05006">
        <ele>391.87</ele>
        <time>2011-06-24T14:57:46Z</time>
      </trkpt>
      <trkpt lat="44.42923" lon="5.05003">
        <ele>390.91</ele>
        <time>2011-06-24T14:57:53Z</time>
      </trkpt>
      <trkpt lat="44.42917" lon="5.05002">
        <ele>389.47</ele>
        <time>2011-06-24T14:57:59Z</time>
      </trkpt>
      <trkpt lat="44.42915" lon="5.04998">
        <ele>388.51</ele>
        <time>2011-06-24T14:58:05Z</time>
      </trkpt>
      <trkpt lat="44.42927" lon="5.04978">
        <ele>387.55</ele>
        <time>2011-06-24T14:58:21Z</time>
      </trkpt>
      <trkpt lat="44.42925" lon="5.04968">
        <ele>388.03</ele>
        <time>2011-06-24T14:58:27Z</time>
      </trkpt>
      <trkpt lat="44.42918" lon="5.04965">
        <ele>387.55</ele>
        <time>2011-06-24T14:58:32Z</time>
      </trkpt>
      <trkpt lat="44.42909" lon="5.04963">
        <ele>386.59</ele>
        <time>2011-06-24T14:58:39Z</time>
      </trkpt>
      <trkpt lat="44.42906" lon="5.04964">
        <ele>385.15</ele>
        <time>2011-06-24T14:58:54Z</time>
      </trkpt>
      <trkpt lat="44.4291" lon="5.04968">
        <ele>385.15</ele>
        <time>2011-06-24T14:58:59Z</time>
      </trkpt>
      <trkpt lat="44.4291" lon="5.04969">
        <ele>386.59</ele>
        <time>2011-06-24T14:59:00Z</time>
      </trkpt>
      <trkpt lat="44.42914" lon="5.04971">
        <ele>385.15</ele>
        <time>2011-06-24T14:59:04Z</time>
      </trkpt>
      <trkpt lat="44.42916" lon="5.0497">
        <ele>383.7</ele>
        <time>2011-06-24T14:59:05Z</time>
      </trkpt>
      <trkpt lat="44.42929" lon="5.0496">
        <ele>385.15</ele>
        <time>2011-06-24T14:59:19Z</time>
      </trkpt>
      <trkpt lat="44.42932" lon="5.04954">
        <ele>386.59</ele>
        <time>2011-06-24T14:59:23Z</time>
      </trkpt>
      <trkpt lat="44.42934" lon="5.04951">
        <ele>385.15</ele>
        <time>2011-06-24T14:59:26Z</time>
      </trkpt>
      <trkpt lat="44.42938" lon="5.04946">
        <ele>386.11</ele>
        <time>2011-06-24T14:59:31Z</time>
      </trkpt>
      <trkpt lat="44.42947" lon="5.04928">
        <ele>386.59</ele>
        <time>2011-06-24T14:59:42Z</time>
      </trkpt>
      <trkpt lat="44.42953" lon="5.04915">
        <ele>385.15</ele>
        <time>2011-06-24T14:59:50Z</time>
      </trkpt>
      <trkpt lat="44.42966" lon="5.04897">
        <ele>384.66</ele>
        <time>2011-06-24T15:00:05Z</time>
      </trkpt>
      <trkpt lat="44.42983" lon="5.04893">
        <ele>383.7</ele>
        <time>2011-06-24T15:00:19Z</time>
      </trkpt>
      <trkpt lat="44.42987" lon="5.04893">
        <ele>385.63</ele>
        <time>2011-06-24T15:00:22Z</time>
      </trkpt>
      <trkpt lat="44.42989" lon="5.04893">
        <ele>382.74</ele>
        <time>2011-06-24T15:00:25Z</time>
      </trkpt>
      <trkpt lat="44.42989" lon="5.04894">
        <ele>388.03</ele>
        <time>2011-06-24T15:00:26Z</time>
      </trkpt>
      <trkpt lat="44.42989" lon="5.04893">
        <ele>386.11</ele>
        <time>2011-06-24T15:00:27Z</time>
      </trkpt>
      <trkpt lat="44.4299" lon="5.04892">
        <ele>385.63</ele>
        <time>2011-06-24T15:00:44Z</time>
      </trkpt>
      <trkpt lat="44.4299" lon="5.04889">
        <ele>385.15</ele>
        <time>2011-06-24T15:00:56Z</time>
      </trkpt>
      <trkpt lat="44.42989" lon="5.04888">
        <ele>385.15</ele>
        <time>2011-06-24T15:01:15Z</time>
      </trkpt>
      <trkpt lat="44.42989" lon="5.04888">
        <ele>385.15</ele>
        <time>2011-06-24T15:01:26Z</time>
      </trkpt>
      <trkpt lat="44.42989" lon="5.04888">
        <ele>384.66</ele>
        <time>2011-06-24T15:01:45Z</time>
      </trkpt>
      <trkpt lat="44.42989" lon="5.04888">
        <ele>384.18</ele>
        <time>2011-06-24T15:02:14Z</time>
      </trkpt>
      <trkpt lat="44.42989" lon="5.04888">
        <ele>384.18</ele>
        <time>2011-06-24T15:02:49Z</time>
      </trkpt>
      <trkpt lat="44.4299" lon="5.04889">
        <ele>383.7</ele>
        <time>2011-06-24T15:03:19Z</time>
      </trkpt>
      <trkpt lat="44.4299" lon="5.04889">
        <ele>385.15</ele>
        <time>2011-06-24T15:03:45Z</time>
      </trkpt>
      <trkpt lat="44.4299" lon="5.04889">
        <ele>384.66</ele>
        <time>2011-06-24T15:04:14Z</time>
      </trkpt>
      <trkpt lat="44.4299" lon="5.04889">
        <ele>384.66</ele>
        <time>2011-06-24T15:04:53Z</time>
      </trkpt>
      <trkpt lat="44.42989" lon="5.04889">
        <ele>385.15</ele>
        <time>2011-06-24T15:05:28Z</time>
      </trkpt>
      <trkpt lat="44.4299" lon="5.04889">
        <ele>385.15</ele>
        <time>2011-06-24T15:06:05Z</time>
      </trkpt>
      <trkpt lat="44.42989" lon="5.04889">
        <ele>384.66</ele>
        <time>2011-06-24T15:06:36Z</time>
      </trkpt>
      <trkpt lat="44.42989" lon="5.04888">
        <ele>384.66</ele>
        <time>2011-06-24T15:07:05Z</time>
      </trkpt>
      <trkpt lat="44.42989" lon="5.04888">
        <ele>384.18</ele>
        <time>2011-06-24T15:07:36Z</time>
      </trkpt>
      <trkpt lat="44.42989" lon="5.04888">
        <ele>384.18</ele>
        <time>2011-06-24T15:08:09Z</time>
      </trkpt>
      <trkpt lat="44.42989" lon="5.04888">
        <ele>385.15</ele>
        <time>2011-06-24T15:08:43Z</time>
      </trkpt>
      <trkpt lat="44.42989" lon="5.04888">
        <ele>384.66</ele>
        <time>2011-06-24T15:09:16Z</time>
      </trkpt>
      <trkpt lat="44.4299" lon="5.04887">
        <ele>383.22</ele>
        <time>2011-06-24T15:09:50Z</time>
      </trkpt>
      <trkpt lat="44.4299" lon="5.04887">
        <ele>379.38</ele>
        <time>2011-06-24T15:10:05Z</time>
      </trkpt>
      <trkpt lat="44.4299" lon="5.04887">
        <ele>382.74</ele>
        <time>2011-06-24T15:10:06Z</time>
      </trkpt>
      <trkpt lat="44.4299" lon="5.04887">
        <ele>386.11</ele>
        <time>2011-06-24T15:10:16Z</time>
      </trkpt>
      <trkpt lat="44.4299" lon="5.04887">
        <ele>385.15</ele>
        <time>2011-06-24T15:10:17Z</time>
      </trkpt>
      <trkpt lat="44.4299" lon="5.04887">
        <ele>384.18</ele>
        <time>2011-06-24T15:10:19Z</time>
      </trkpt>
      <trkpt lat="44.4299" lon="5.04887">
        <ele>385.63</ele>
        <time>2011-06-24T15:10:47Z</time>
      </trkpt>
      <trkpt lat="44.4299" lon="5.04887">
        <ele>384.66</ele>
        <time>2011-06-24T15:11:25Z</time>
      </trkpt>
      <trkpt lat="44.4299" lon="5.04888">
        <ele>382.26</ele>
        <time>2011-06-24T15:11:43Z</time>
      </trkpt>
      <trkpt lat="44.4299" lon="5.04888">
        <ele>384.18</ele>
        <time>2011-06-24T15:11:45Z</time>
      </trkpt>
      <trkpt lat="44.4299" lon="5.04887">
        <ele>385.63</ele>
        <time>2011-06-24T15:11:58Z</time>
      </trkpt>
      <trkpt lat="44.4299" lon="5.04887">
        <ele>385.15</ele>
        <time>2011-06-24T15:12:15Z</time>
      </trkpt>
      <trkpt lat="44.42988" lon="5.04891">
        <ele>385.15</ele>
        <time>2011-06-24T15:12:35Z</time>
      </trkpt>
      <trkpt lat="44.42985" lon="5.049">
        <ele>385.63</ele>
        <time>2011-06-24T15:12:47Z</time>
      </trkpt>
      <trkpt lat="44.42985" lon="5.04903">
        <ele>385.63</ele>
        <time>2011-06-24T15:12:49Z</time>
      </trkpt>
      <trkpt lat="44.42989" lon="5.04911">
        <ele>382.74</ele>
        <time>2011-06-24T15:12:56Z</time>
      </trkpt>
      <trkpt lat="44.42993" lon="5.04919">
        <ele>384.66</ele>
        <time>2011-06-24T15:13:04Z</time>
      </trkpt>
      <trkpt lat="44.43008" lon="5.0493">
        <ele>386.11</ele>
        <time>2011-06-24T15:13:20Z</time>
      </trkpt>
      <trkpt lat="44.43022" lon="5.04931">
        <ele>387.07</ele>
        <time>2011-06-24T15:13:33Z</time>
      </trkpt>
      <trkpt lat="44.43029" lon="5.04912">
        <ele>387.07</ele>
        <time>2011-06-24T15:13:48Z</time>
      </trkpt>
      <trkpt lat="44.43034" lon="5.04887">
        <ele>386.11</ele>
        <time>2011-06-24T15:14:04Z</time>
      </trkpt>
      <trkpt lat="44.43037" lon="5.04875">
        <ele>387.07</ele>
        <time>2011-06-24T15:14:12Z</time>
      </trkpt>
      <trkpt lat="44.43038" lon="5.04872">
        <ele>387.07</ele>
        <time>2011-06-24T15:14:14Z</time>
      </trkpt>
      <trkpt lat="44.43054" lon="5.04861">
        <ele>388.99</ele>
        <time>2011-06-24T15:14:29Z</time>
      </trkpt>
      <trkpt lat="44.43071" lon="5.04852">
        <ele>390.91</ele>
        <time>2011-06-24T15:14:47Z</time>
      </trkpt>
      <trkpt lat="44.43088" lon="5.04842">
        <ele>392.84</ele>
        <time>2011-06-24T15:15:03Z</time>
      </trkpt>
      <trkpt lat="44.43105" lon="5.04831">
        <ele>394.28</ele>
        <time>2011-06-24T15:15:20Z</time>
      </trkpt>
      <trkpt lat="44.4312" lon="5.04819">
        <ele>395.72</ele>
        <time>2011-06-24T15:15:36Z</time>
      </trkpt>
      <trkpt lat="44.4313" lon="5.0481">
        <ele>397.16</ele>
        <time>2011-06-24T15:15:46Z</time>
      </trkpt>
      <trkpt lat="44.43145" lon="5.04795">
        <ele>396.68</ele>
        <time>2011-06-24T15:16:02Z</time>
      </trkpt>
      <trkpt lat="44.43153" lon="5.04785">
        <ele>397.16</ele>
        <time>2011-06-24T15:16:17Z</time>
      </trkpt>
      <trkpt lat="44.43155" lon="5.04784">
        <ele>397.64</ele>
        <time>2011-06-24T15:16:19Z</time>
      </trkpt>
      <trkpt lat="44.43172" lon="5.04769">
        <ele>400.53</ele>
        <time>2011-06-24T15:16:34Z</time>
      </trkpt>
      <trkpt lat="44.43187" lon="5.04757">
        <ele>400.05</ele>
        <time>2011-06-24T15:16:48Z</time>
      </trkpt>
      <trkpt lat="44.43204" lon="5.04744">
        <ele>402.45</ele>
        <time>2011-06-24T15:17:04Z</time>
      </trkpt>
      <trkpt lat="44.43221" lon="5.04732">
        <ele>405.33</ele>
        <time>2011-06-24T15:17:19Z</time>
      </trkpt>
      <trkpt lat="44.43223" lon="5.04731">
        <ele>405.81</ele>
        <time>2011-06-24T15:17:21Z</time>
      </trkpt>
      <trkpt lat="44.43228" lon="5.04728">
        <ele>406.29</ele>
        <time>2011-06-24T15:17:25Z</time>
      </trkpt>
      <trkpt lat="44.43243" lon="5.04714">
        <ele>407.74</ele>
        <time>2011-06-24T15:17:42Z</time>
      </trkpt>
      <trkpt lat="44.4325" lon="5.04708">
        <ele>409.66</ele>
        <time>2011-06-24T15:17:49Z</time>
      </trkpt>
      <trkpt lat="44.43262" lon="5.04694">
        <ele>409.18</ele>
        <time>2011-06-24T15:18:03Z</time>
      </trkpt>
      <trkpt lat="44.43264" lon="5.04691">
        <ele>410.62</ele>
        <time>2011-06-24T15:18:06Z</time>
      </trkpt>
      <trkpt lat="44.4327" lon="5.04685">
        <ele>410.14</ele>
        <time>2011-06-24T15:18:12Z</time>
      </trkpt>
      <trkpt lat="44.43285" lon="5.04672">
        <ele>410.62</ele>
        <time>2011-06-24T15:18:26Z</time>
      </trkpt>
      <trkpt lat="44.43294" lon="5.04656">
        <ele>408.7</ele>
        <time>2011-06-24T15:18:38Z</time>
      </trkpt>
      <trkpt lat="44.43297" lon="5.04648">
        <ele>406.77</ele>
        <time>2011-06-24T15:18:44Z</time>
      </trkpt>
      <trkpt lat="44.43309" lon="5.04625">
        <ele>407.26</ele>
        <time>2011-06-24T15:19:00Z</time>
      </trkpt>
      <trkpt lat="44.4331" lon="5.04622">
        <ele>407.74</ele>
        <time>2011-06-24T15:19:02Z</time>
      </trkpt>
      <trkpt lat="44.43313" lon="5.04615">
        <ele>406.77</ele>
        <time>2011-06-24T15:19:07Z</time>
      </trkpt>
      <trkpt lat="44.43321" lon="5.04593">
        <ele>405.33</ele>
        <time>2011-06-24T15:19:22Z</time>
      </trkpt>
      <trkpt lat="44.43322" lon="5.04591">
        <ele>405.33</ele>
        <time>2011-06-24T15:19:23Z</time>
      </trkpt>
      <trkpt lat="44.43324" lon="5.0458">
        <ele>403.41</ele>
        <time>2011-06-24T15:19:31Z</time>
      </trkpt>
      <trkpt lat="44.43325" lon="5.04577">
        <ele>402.45</ele>
        <time>2011-06-24T15:19:33Z</time>
      </trkpt>
      <trkpt lat="44.43332" lon="5.04554">
        <ele>402.45</ele>
        <time>2011-06-24T15:19:47Z</time>
      </trkpt>
      <trkpt lat="44.43343" lon="5.04532">
        <ele>401.97</ele>
        <time>2011-06-24T15:20:03Z</time>
      </trkpt>
      <trkpt lat="44.43351" lon="5.04512">
        <ele>400.53</ele>
        <time>2011-06-24T15:20:17Z</time>
      </trkpt>
      <trkpt lat="44.43353" lon="5.04506">
        <ele>402.45</ele>
        <time>2011-06-24T15:20:21Z</time>
      </trkpt>
      <trkpt lat="44.43361" lon="5.04489">
        <ele>400.05</ele>
        <time>2011-06-24T15:20:32Z</time>
      </trkpt>
      <trkpt lat="44.4337" lon="5.04466">
        <ele>399.57</ele>
        <time>2011-06-24T15:20:47Z</time>
      </trkpt>
      <trkpt lat="44.4338" lon="5.04442">
        <ele>398.12</ele>
        <time>2011-06-24T15:21:03Z</time>
      </trkpt>
      <trkpt lat="44.43389" lon="5.04422">
        <ele>398.6</ele>
        <time>2011-06-24T15:21:17Z</time>
      </trkpt>
      <trkpt lat="44.43393" lon="5.04408">
        <ele>398.6</ele>
        <time>2011-06-24T15:21:28Z</time>
      </trkpt>
      <trkpt lat="44.43404" lon="5.04385">
        <ele>399.57</ele>
        <time>2011-06-24T15:21:42Z</time>
      </trkpt>
      <trkpt lat="44.43408" lon="5.04379">
        <ele>396.68</ele>
        <time>2011-06-24T15:21:50Z</time>
      </trkpt>
      <trkpt lat="44.4341" lon="5.04374">
        <ele>397.16</ele>
        <time>2011-06-24T15:21:54Z</time>
      </trkpt>
      <trkpt lat="44.43415" lon="5.04357">
        <ele>395.72</ele>
        <time>2011-06-24T15:22:06Z</time>
      </trkpt>
      <trkpt lat="44.43417" lon="5.04349">
        <ele>394.28</ele>
        <time>2011-06-24T15:22:12Z</time>
      </trkpt>
      <trkpt lat="44.43422" lon="5.04338">
        <ele>393.8</ele>
        <time>2011-06-24T15:22:20Z</time>
      </trkpt>
      <trkpt lat="44.43425" lon="5.04326">
        <ele>392.36</ele>
        <time>2011-06-24T15:22:27Z</time>
      </trkpt>
      <trkpt lat="44.43429" lon="5.04307">
        <ele>390.43</ele>
        <time>2011-06-24T15:22:40Z</time>
      </trkpt>
      <trkpt lat="44.4343" lon="5.04304">
        <ele>389.47</ele>
        <time>2011-06-24T15:22:42Z</time>
      </trkpt>
      <trkpt lat="44.43432" lon="5.04297">
        <ele>388.99</ele>
        <time>2011-06-24T15:22:47Z</time>
      </trkpt>
      <trkpt lat="44.43432" lon="5.0429">
        <ele>388.51</ele>
        <time>2011-06-24T15:22:52Z</time>
      </trkpt>
      <trkpt lat="44.43436" lon="5.04267">
        <ele>389.47</ele>
        <time>2011-06-24T15:23:08Z</time>
      </trkpt>
      <trkpt lat="44.43437" lon="5.04256">
        <ele>385.63</ele>
        <time>2011-06-24T15:23:18Z</time>
      </trkpt>
      <trkpt lat="44.43437" lon="5.04252">
        <ele>385.15</ele>
        <time>2011-06-24T15:23:20Z</time>
      </trkpt>
      <trkpt lat="44.43439" lon="5.04232">
        <ele>383.22</ele>
        <time>2011-06-24T15:23:31Z</time>
      </trkpt>
      <trkpt lat="44.4344" lon="5.04219">
        <ele>382.26</ele>
        <time>2011-06-24T15:23:45Z</time>
      </trkpt>
      <trkpt lat="44.4344" lon="5.04219">
        <ele>379.86</ele>
        <time>2011-06-24T15:23:51Z</time>
      </trkpt>
      <trkpt lat="44.43442" lon="5.04183">
        <ele>380.82</ele>
        <time>2011-06-24T15:24:07Z</time>
      </trkpt>
      <trkpt lat="44.43444" lon="5.04179">
        <ele>379.86</ele>
        <time>2011-06-24T15:24:09Z</time>
      </trkpt>
      <trkpt lat="44.43451" lon="5.04163">
        <ele>380.34</ele>
        <time>2011-06-24T15:24:21Z</time>
      </trkpt>
      <trkpt lat="44.43455" lon="5.04155">
        <ele>380.34</ele>
        <time>2011-06-24T15:24:26Z</time>
      </trkpt>
      <trkpt lat="44.4346" lon="5.04145">
        <ele>379.38</ele>
        <time>2011-06-24T15:24:33Z</time>
      </trkpt>
      <trkpt lat="44.43466" lon="5.04132">
        <ele>378.9</ele>
        <time>2011-06-24T15:24:42Z</time>
      </trkpt>
      <trkpt lat="44.43469" lon="5.04112">
        <ele>377.45</ele>
        <time>2011-06-24T15:25:01Z</time>
      </trkpt>
      <trkpt lat="44.43469" lon="5.04112">
        <ele>375.05</ele>
        <time>2011-06-24T15:25:16Z</time>
      </trkpt>
      <trkpt lat="44.43474" lon="5.04099">
        <ele>375.05</ele>
        <time>2011-06-24T15:25:25Z</time>
      </trkpt>
      <trkpt lat="44.43479" lon="5.04086">
        <ele>375.53</ele>
        <time>2011-06-24T15:25:31Z</time>
      </trkpt>
      <trkpt lat="44.43481" lon="5.04082">
        <ele>375.05</ele>
        <time>2011-06-24T15:25:34Z</time>
      </trkpt>
      <trkpt lat="44.43483" lon="5.04074">
        <ele>374.09</ele>
        <time>2011-06-24T15:25:39Z</time>
      </trkpt>
      <trkpt lat="44.43485" lon="5.0406">
        <ele>375.05</ele>
        <time>2011-06-24T15:25:47Z</time>
      </trkpt>
      <trkpt lat="44.43494" lon="5.04035">
        <ele>374.09</ele>
        <time>2011-06-24T15:26:05Z</time>
      </trkpt>
      <trkpt lat="44.43497" lon="5.04027">
        <ele>374.09</ele>
        <time>2011-06-24T15:26:09Z</time>
      </trkpt>
      <trkpt lat="44.43504" lon="5.0401">
        <ele>374.09</ele>
        <time>2011-06-24T15:26:19Z</time>
      </trkpt>
      <trkpt lat="44.43505" lon="5.04007">
        <ele>373.13</ele>
        <time>2011-06-24T15:26:21Z</time>
      </trkpt>
      <trkpt lat="44.43508" lon="5.04001">
        <ele>370.24</ele>
        <time>2011-06-24T15:26:34Z</time>
      </trkpt>
      <trkpt lat="44.4351" lon="5.03992">
        <ele>372.65</ele>
        <time>2011-06-24T15:26:47Z</time>
      </trkpt>
      <trkpt lat="44.43524" lon="5.03942">
        <ele>371.21</ele>
        <time>2011-06-24T15:27:03Z</time>
      </trkpt>
      <trkpt lat="44.43532" lon="5.0393">
        <ele>373.61</ele>
        <time>2011-06-24T15:27:13Z</time>
      </trkpt>
      <trkpt lat="44.43537" lon="5.03921">
        <ele>371.21</ele>
        <time>2011-06-24T15:27:33Z</time>
      </trkpt>
      <trkpt lat="44.4354" lon="5.03904">
        <ele>371.69</ele>
        <time>2011-06-24T15:27:50Z</time>
      </trkpt>
      <trkpt lat="44.4354" lon="5.03904">
        <ele>371.21</ele>
        <time>2011-06-24T15:27:53Z</time>
      </trkpt>
      <trkpt lat="44.43542" lon="5.03899">
        <ele>370.73</ele>
        <time>2011-06-24T15:28:07Z</time>
      </trkpt>
      <trkpt lat="44.43548" lon="5.03885">
        <ele>371.69</ele>
        <time>2011-06-24T15:28:24Z</time>
      </trkpt>
      <trkpt lat="44.43563" lon="5.03835">
        <ele>370.73</ele>
        <time>2011-06-24T15:28:40Z</time>
      </trkpt>
      <trkpt lat="44.43564" lon="5.03831">
        <ele>370.73</ele>
        <time>2011-06-24T15:28:41Z</time>
      </trkpt>
      <trkpt lat="44.43577" lon="5.03803">
        <ele>370.24</ele>
        <time>2011-06-24T15:28:54Z</time>
      </trkpt>
      <trkpt lat="44.4358" lon="5.03795">
        <ele>368.8</ele>
        <time>2011-06-24T15:29:09Z</time>
      </trkpt>
      <trkpt lat="44.4358" lon="5.03795">
        <ele>365.44</ele>
        <time>2011-06-24T15:29:20Z</time>
      </trkpt>
      <trkpt lat="44.4358" lon="5.03795">
        <ele>364</ele>
        <time>2011-06-24T15:29:36Z</time>
      </trkpt>
      <trkpt lat="44.43584" lon="5.0378">
        <ele>365.44</ele>
        <time>2011-06-24T15:29:48Z</time>
      </trkpt>
      <trkpt lat="44.43584" lon="5.03777">
        <ele>367.36</ele>
        <time>2011-06-24T15:29:50Z</time>
      </trkpt>
      <trkpt lat="44.43584" lon="5.03775">
        <ele>370.73</ele>
        <time>2011-06-24T15:30:06Z</time>
      </trkpt>
      <trkpt lat="44.43584" lon="5.03775">
        <ele>372.17</ele>
        <time>2011-06-24T15:30:13Z</time>
      </trkpt>
      <trkpt lat="44.43587" lon="5.03773">
        <ele>373.13</ele>
        <time>2011-06-24T15:30:26Z</time>
      </trkpt>
      <trkpt lat="44.43613" lon="5.03757">
        <ele>370.24</ele>
        <time>2011-06-24T15:30:35Z</time>
      </trkpt>
      <trkpt lat="44.43613" lon="5.03755">
        <ele>370.73</ele>
        <time>2011-06-24T15:30:36Z</time>
      </trkpt>
      <trkpt lat="44.43613" lon="5.03739">
        <ele>370.73</ele>
        <time>2011-06-24T15:30:42Z</time>
      </trkpt>
      <trkpt lat="44.43603" lon="5.03694">
        <ele>368.8</ele>
        <time>2011-06-24T15:30:58Z</time>
      </trkpt>
      <trkpt lat="44.43602" lon="5.03692">
        <ele>369.28</ele>
        <time>2011-06-24T15:30:59Z</time>
      </trkpt>
      <trkpt lat="44.4359" lon="5.0365">
        <ele>368.8</ele>
        <time>2011-06-24T15:31:14Z</time>
      </trkpt>
      <trkpt lat="44.43577" lon="5.03623">
        <ele>367.84</ele>
        <time>2011-06-24T15:31:30Z</time>
      </trkpt>
      <trkpt lat="44.43567" lon="5.03593">
        <ele>367.84</ele>
        <time>2011-06-24T15:31:45Z</time>
      </trkpt>
      <trkpt lat="44.43557" lon="5.03571">
        <ele>367.84</ele>
        <time>2011-06-24T15:31:58Z</time>
      </trkpt>
      <trkpt lat="44.43545" lon="5.03541">
        <ele>366.88</ele>
        <time>2011-06-24T15:32:15Z</time>
      </trkpt>
      <trkpt lat="44.43533" lon="5.03514">
        <ele>365.92</ele>
        <time>2011-06-24T15:32:32Z</time>
      </trkpt>
      <trkpt lat="44.43524" lon="5.03495">
        <ele>365.44</ele>
        <time>2011-06-24T15:32:45Z</time>
      </trkpt>
      <trkpt lat="44.43521" lon="5.03488">
        <ele>366.4</ele>
        <time>2011-06-24T15:32:50Z</time>
      </trkpt>
      <trkpt lat="44.43518" lon="5.03462">
        <ele>364</ele>
        <time>2011-06-24T15:33:05Z</time>
      </trkpt>
      <trkpt lat="44.43517" lon="5.03439">
        <ele>364</ele>
        <time>2011-06-24T15:33:18Z</time>
      </trkpt>
      <trkpt lat="44.43517" lon="5.03436">
        <ele>363.52</ele>
        <time>2011-06-24T15:33:20Z</time>
      </trkpt>
      <trkpt lat="44.43517" lon="5.03433">
        <ele>363.04</ele>
        <time>2011-06-24T15:33:22Z</time>
      </trkpt>
      <trkpt lat="44.43515" lon="5.03409">
        <ele>361.59</ele>
        <time>2011-06-24T15:33:36Z</time>
      </trkpt>
      <trkpt lat="44.43515" lon="5.03404">
        <ele>361.59</ele>
        <time>2011-06-24T15:33:39Z</time>
      </trkpt>
      <trkpt lat="44.43515" lon="5.03376">
        <ele>361.59</ele>
        <time>2011-06-24T15:33:54Z</time>
      </trkpt>
      <trkpt lat="44.43514" lon="5.03366">
        <ele>360.63</ele>
        <time>2011-06-24T15:33:59Z</time>
      </trkpt>
      <trkpt lat="44.43513" lon="5.03338">
        <ele>359.67</ele>
        <time>2011-06-24T15:34:15Z</time>
      </trkpt>
      <trkpt lat="44.43513" lon="5.03337">
        <ele>359.67</ele>
        <time>2011-06-24T15:34:16Z</time>
      </trkpt>
      <trkpt lat="44.43512" lon="5.03314">
        <ele>358.23</ele>
        <time>2011-06-24T15:34:29Z</time>
      </trkpt>
      <trkpt lat="44.43511" lon="5.03291">
        <ele>357.27</ele>
        <time>2011-06-24T15:34:41Z</time>
      </trkpt>
      <trkpt lat="44.43509" lon="5.03266">
        <ele>356.79</ele>
        <time>2011-06-24T15:34:56Z</time>
      </trkpt>
      <trkpt lat="44.43508" lon="5.03242">
        <ele>355.34</ele>
        <time>2011-06-24T15:35:10Z</time>
      </trkpt>
      <trkpt lat="44.43508" lon="5.03219">
        <ele>355.83</ele>
        <time>2011-06-24T15:35:23Z</time>
      </trkpt>
      <trkpt lat="44.43507" lon="5.03197">
        <ele>354.86</ele>
        <time>2011-06-24T15:35:35Z</time>
      </trkpt>
      <trkpt lat="44.43507" lon="5.0318">
        <ele>356.79</ele>
        <time>2011-06-24T15:35:44Z</time>
      </trkpt>
      <trkpt lat="44.43507" lon="5.03153">
        <ele>354.38</ele>
        <time>2011-06-24T15:35:59Z</time>
      </trkpt>
      <trkpt lat="44.43507" lon="5.03143">
        <ele>353.9</ele>
        <time>2011-06-24T15:36:05Z</time>
      </trkpt>
      <trkpt lat="44.43507" lon="5.03128">
        <ele>351.02</ele>
        <time>2011-06-24T15:36:13Z</time>
      </trkpt>
      <trkpt lat="44.43506" lon="5.03101">
        <ele>351.5</ele>
        <time>2011-06-24T15:36:27Z</time>
      </trkpt>
      <trkpt lat="44.43506" lon="5.03092">
        <ele>351.5</ele>
        <time>2011-06-24T15:36:32Z</time>
      </trkpt>
      <trkpt lat="44.43505" lon="5.03065">
        <ele>350.54</ele>
        <time>2011-06-24T15:36:47Z</time>
      </trkpt>
      <trkpt lat="44.43504" lon="5.0306">
        <ele>351.02</ele>
        <time>2011-06-24T15:36:51Z</time>
      </trkpt>
      <trkpt lat="44.43502" lon="5.03039">
        <ele>349.1</ele>
        <time>2011-06-24T15:37:05Z</time>
      </trkpt>
      <trkpt lat="44.43502" lon="5.03023">
        <ele>348.13</ele>
        <time>2011-06-24T15:37:17Z</time>
      </trkpt>
      <trkpt lat="44.43493" lon="5.03007">
        <ele>347.17</ele>
        <time>2011-06-24T15:37:33Z</time>
      </trkpt>
      <trkpt lat="44.43488" lon="5.03007">
        <ele>346.69</ele>
        <time>2011-06-24T15:37:37Z</time>
      </trkpt>
      <trkpt lat="44.43483" lon="5.03005">
        <ele>345.73</ele>
        <time>2011-06-24T15:37:42Z</time>
      </trkpt>
      <trkpt lat="44.43475" lon="5.03003">
        <ele>346.69</ele>
        <time>2011-06-24T15:37:48Z</time>
      </trkpt>
      <trkpt lat="44.43453" lon="5.02999">
        <ele>346.69</ele>
        <time>2011-06-24T15:38:05Z</time>
      </trkpt>
      <trkpt lat="44.43433" lon="5.02996">
        <ele>345.73</ele>
        <time>2011-06-24T15:38:20Z</time>
      </trkpt>
      <trkpt lat="44.43428" lon="5.02996">
        <ele>344.77</ele>
        <time>2011-06-24T15:38:23Z</time>
      </trkpt>
      <trkpt lat="44.43407" lon="5.02993">
        <ele>343.81</ele>
        <time>2011-06-24T15:38:39Z</time>
      </trkpt>
      <trkpt lat="44.43404" lon="5.02992">
        <ele>344.29</ele>
        <time>2011-06-24T15:38:42Z</time>
      </trkpt>
      <trkpt lat="44.43388" lon="5.02991">
        <ele>344.29</ele>
        <time>2011-06-24T15:38:57Z</time>
      </trkpt>
      <trkpt lat="44.43367" lon="5.02987">
        <ele>344.77</ele>
        <time>2011-06-24T15:39:13Z</time>
      </trkpt>
      <trkpt lat="44.43354" lon="5.02985">
        <ele>344.77</ele>
        <time>2011-06-24T15:39:27Z</time>
      </trkpt>
      <trkpt lat="44.43353" lon="5.02985">
        <ele>343.81</ele>
        <time>2011-06-24T15:39:32Z</time>
      </trkpt>
      <trkpt lat="44.43346" lon="5.02984">
        <ele>344.77</ele>
        <time>2011-06-24T15:39:38Z</time>
      </trkpt>
      <trkpt lat="44.43329" lon="5.02981">
        <ele>344.77</ele>
        <time>2011-06-24T15:39:52Z</time>
      </trkpt>
      <trkpt lat="44.43319" lon="5.02981">
        <ele>347.17</ele>
        <time>2011-06-24T15:39:59Z</time>
      </trkpt>
      <trkpt lat="44.43314" lon="5.0298">
        <ele>343.81</ele>
        <time>2011-06-24T15:40:03Z</time>
      </trkpt>
      <trkpt lat="44.43312" lon="5.0298">
        <ele>343.33</ele>
        <time>2011-06-24T15:40:04Z</time>
      </trkpt>
      <trkpt lat="44.4329" lon="5.02978">
        <ele>344.29</ele>
        <time>2011-06-24T15:40:20Z</time>
      </trkpt>
      <trkpt lat="44.43269" lon="5.02975">
        <ele>344.77</ele>
        <time>2011-06-24T15:40:36Z</time>
      </trkpt>
      <trkpt lat="44.43261" lon="5.02968">
        <ele>344.29</ele>
        <time>2011-06-24T15:40:43Z</time>
      </trkpt>
      <trkpt lat="44.43251" lon="5.02962">
        <ele>345.25</ele>
        <time>2011-06-24T15:40:51Z</time>
      </trkpt>
      <trkpt lat="44.43238" lon="5.02941">
        <ele>345.25</ele>
        <time>2011-06-24T15:41:06Z</time>
      </trkpt>
      <trkpt lat="44.43224" lon="5.02921">
        <ele>345.73</ele>
        <time>2011-06-24T15:41:20Z</time>
      </trkpt>
      <trkpt lat="44.43211" lon="5.02911">
        <ele>345.25</ele>
        <time>2011-06-24T15:41:32Z</time>
      </trkpt>
      <trkpt lat="44.43206" lon="5.0291">
        <ele>345.25</ele>
        <time>2011-06-24T15:41:36Z</time>
      </trkpt>
      <trkpt lat="44.43201" lon="5.02909">
        <ele>344.77</ele>
        <time>2011-06-24T15:41:40Z</time>
      </trkpt>
      <trkpt lat="44.43199" lon="5.02909">
        <ele>345.73</ele>
        <time>2011-06-24T15:41:42Z</time>
      </trkpt>
      <trkpt lat="44.43189" lon="5.0291">
        <ele>344.77</ele>
        <time>2011-06-24T15:41:50Z</time>
      </trkpt>
      <trkpt lat="44.43167" lon="5.02908">
        <ele>343.33</ele>
        <time>2011-06-24T15:42:08Z</time>
      </trkpt>
      <trkpt lat="44.43145" lon="5.02904">
        <ele>341.41</ele>
        <time>2011-06-24T15:42:24Z</time>
      </trkpt>
      <trkpt lat="44.43124" lon="5.029">
        <ele>340.92</ele>
        <time>2011-06-24T15:42:39Z</time>
      </trkpt>
      <trkpt lat="44.43102" lon="5.02894">
        <ele>339.48</ele>
        <time>2011-06-24T15:42:56Z</time>
      </trkpt>
      <trkpt lat="44.43084" lon="5.02882">
        <ele>337.08</ele>
        <time>2011-06-24T15:43:11Z</time>
      </trkpt>
      <trkpt lat="44.43067" lon="5.02859">
        <ele>336.6</ele>
        <time>2011-06-24T15:43:29Z</time>
      </trkpt>
      <trkpt lat="44.43059" lon="5.02839">
        <ele>335.16</ele>
        <time>2011-06-24T15:43:41Z</time>
      </trkpt>
      <trkpt lat="44.43064" lon="5.02811">
        <ele>334.2</ele>
        <time>2011-06-24T15:43:56Z</time>
      </trkpt>
      <trkpt lat="44.43065" lon="5.02808">
        <ele>335.16</ele>
        <time>2011-06-24T15:43:58Z</time>
      </trkpt>
      <trkpt lat="44.43051" lon="5.02794">
        <ele>335.16</ele>
        <time>2011-06-24T15:44:15Z</time>
      </trkpt>
      <trkpt lat="44.43036" lon="5.02785">
        <ele>333.71</ele>
        <time>2011-06-24T15:44:29Z</time>
      </trkpt>
      <trkpt lat="44.43029" lon="5.02782">
        <ele>333.71</ele>
        <time>2011-06-24T15:44:35Z</time>
      </trkpt>
      <trkpt lat="44.4301" lon="5.02769">
        <ele>333.71</ele>
        <time>2011-06-24T15:44:51Z</time>
      </trkpt>
      <trkpt lat="44.42996" lon="5.0276">
        <ele>333.23</ele>
        <time>2011-06-24T15:45:04Z</time>
      </trkpt>
      <trkpt lat="44.42989" lon="5.02753">
        <ele>331.79</ele>
        <time>2011-06-24T15:45:11Z</time>
      </trkpt>
      <trkpt lat="44.42978" lon="5.02742">
        <ele>332.75</ele>
        <time>2011-06-24T15:45:25Z</time>
      </trkpt>
      <trkpt lat="44.42956" lon="5.02723">
        <ele>332.27</ele>
        <time>2011-06-24T15:45:39Z</time>
      </trkpt>
      <trkpt lat="44.42953" lon="5.02715">
        <ele>332.27</ele>
        <time>2011-06-24T15:45:52Z</time>
      </trkpt>
      <trkpt lat="44.42953" lon="5.02715">
        <ele>335.64</ele>
        <time>2011-06-24T15:46:01Z</time>
      </trkpt>
      <trkpt lat="44.42953" lon="5.02715">
        <ele>335.64</ele>
        <time>2011-06-24T15:46:02Z</time>
      </trkpt>
      <trkpt lat="44.42953" lon="5.02715">
        <ele>338.52</ele>
        <time>2011-06-24T15:46:04Z</time>
      </trkpt>
      <trkpt lat="44.42953" lon="5.02715">
        <ele>335.64</ele>
        <time>2011-06-24T15:46:06Z</time>
      </trkpt>
      <trkpt lat="44.42953" lon="5.02715">
        <ele>331.79</ele>
        <time>2011-06-24T15:46:12Z</time>
      </trkpt>
      <trkpt lat="44.42953" lon="5.02715">
        <ele>335.64</ele>
        <time>2011-06-24T15:46:13Z</time>
      </trkpt>
    </trkseg>
  </trk>
</gpx>